sensor_id;sensor_type;location;lat;lon;timestamp;temperature;humidity
18450;DHT22;9354;50.194;7.690;2022-12-11T00:01:46;-0.90;99.90
18450;DHT22;9354;50.194;7.690;2022-12-11T00:04:13;-0.90;99.90
18450;DHT22;9354;50.194;7.690;2022-12-11T00:06:41;-0.90;99.90
18450;DHT22;9354;50.194;7.690;2022-12-11T00:09:09;-0.90;99.90
18450;DHT22;9354;50.194;7.690;2022-12-11T00:11:37;-1.00;99.90
18450;DHT22;9354;50.194;7.690;2022-12-11T00:14:04;-1.00;99.90
18450;DHT22;9354;50.194;7.690;2022-12-11T00:16:31;-1.00;99.90
18450;DHT22;9354;50.194;7.690;2022-12-11T00:19:00;-1.00;99.90
18450;DHT22;9354;50.194;7.690;2022-12-11T00:21:28;-1.00;99.90
18450;DHT22;9354;50.194;7.690;2022-12-11T00:23:55;-1.00;99.90
18450;DHT22;9354;50.194;7.690;2022-12-11T00:26:22;-1.00;99.90
18450;DHT22;9354;50.194;7.690;2022-12-11T00:28:52;-1.00;99.90
18450;DHT22;9354;50.194;7.690;2022-12-11T00:31:21;-1.00;99.90
18450;DHT22;9354;50.194;7.690;2022-12-11T00:33:49;-1.00;99.90
18450;DHT22;9354;50.194;7.690;2022-12-11T00:36:20;-0.90;99.90
18450;DHT22;9354;50.194;7.690;2022-12-11T00:38:48;-0.90;99.90
18450;DHT22;9354;50.194;7.690;2022-12-11T00:41:16;-1.00;99.90
18450;DHT22;9354;50.194;7.690;2022-12-11T00:43:44;-1.00;99.90
18450;DHT22;9354;50.194;7.690;2022-12-11T00:46:12;-1.10;99.90
18450;DHT22;9354;50.194;7.690;2022-12-11T00:48:39;-1.10;99.90
18450;DHT22;9354;50.194;7.690;2022-12-11T00:51:07;-1.10;99.90
18450;DHT22;9354;50.194;7.690;2022-12-11T00:53:35;-1.10;99.90
18450;DHT22;9354;50.194;7.690;2022-12-11T00:56:09;-1.00;99.90
18450;DHT22;9354;50.194;7.690;2022-12-11T00:58:37;-1.00;99.90
18450;DHT22;9354;50.194;7.690;2022-12-11T01:01:06;-1.00;99.90
18450;DHT22;9354;50.194;7.690;2022-12-11T01:03:34;-1.10;99.90
18450;DHT22;9354;50.194;7.690;2022-12-11T01:06:03;-1.20;99.90
18450;DHT22;9354;50.194;7.690;2022-12-11T01:08:31;-1.20;99.90
18450;DHT22;9354;50.194;7.690;2022-12-11T01:11:04;-1.20;99.90
18450;DHT22;9354;50.194;7.690;2022-12-11T01:13:31;-1.20;99.90
18450;DHT22;9354;50.194;7.690;2022-12-11T01:15:58;-1.10;99.90
18450;DHT22;9354;50.194;7.690;2022-12-11T01:18:26;-1.10;99.90
18450;DHT22;9354;50.194;7.690;2022-12-11T01:20:54;-1.10;99.90
18450;DHT22;9354;50.194;7.690;2022-12-11T01:23:21;-1.10;99.90
18450;DHT22;9354;50.194;7.690;2022-12-11T01:25:49;-1.10;99.90
18450;DHT22;9354;50.194;7.690;2022-12-11T01:28:17;-1.10;99.90
18450;DHT22;9354;50.194;7.690;2022-12-11T01:30:45;-1.10;99.90
18450;DHT22;9354;50.194;7.690;2022-12-11T01:33:12;-1.00;99.90
18450;DHT22;9354;50.194;7.690;2022-12-11T01:35:40;-1.00;99.90
18450;DHT22;9354;50.194;7.690;2022-12-11T01:38:08;-0.90;99.90
18450;DHT22;9354;50.194;7.690;2022-12-11T01:40:36;-0.90;99.90
18450;DHT22;9354;50.194;7.690;2022-12-11T01:43:03;-0.90;99.90
18450;DHT22;9354;50.194;7.690;2022-12-11T01:45:37;-0.90;99.90
18450;DHT22;9354;50.194;7.690;2022-12-11T01:48:08;-0.90;99.90
18450;DHT22;9354;50.194;7.690;2022-12-11T01:50:40;-0.90;99.90
18450;DHT22;9354;50.194;7.690;2022-12-11T01:53:12;-0.90;99.90
18450;DHT22;9354;50.194;7.690;2022-12-11T01:55:41;-0.90;99.90
18450;DHT22;9354;50.194;7.690;2022-12-11T01:58:09;-0.90;99.90
18450;DHT22;9354;50.194;7.690;2022-12-11T02:00:39;-1.00;99.90
18450;DHT22;9354;50.194;7.690;2022-12-11T02:03:07;-0.90;99.90
18450;DHT22;9354;50.194;7.690;2022-12-11T02:05:34;-1.00;99.90
18450;DHT22;9354;50.194;7.690;2022-12-11T02:08:03;-1.00;99.90
18450;DHT22;9354;50.194;7.690;2022-12-11T02:13:28;-1.10;99.90
18450;DHT22;9354;50.194;7.690;2022-12-11T02:16:04;-1.00;99.90
18450;DHT22;9354;50.194;7.690;2022-12-11T02:18:37;-1.10;99.90
18450;DHT22;9354;50.194;7.690;2022-12-11T02:21:08;-1.00;99.90
18450;DHT22;9354;50.194;7.690;2022-12-11T02:23:59;-1.00;99.90
18450;DHT22;9354;50.194;7.690;2022-12-11T02:26:53;-1.00;99.90
18450;DHT22;9354;50.194;7.690;2022-12-11T02:29:31;-0.90;99.90
18450;DHT22;9354;50.194;7.690;2022-12-11T02:32:02;-0.90;99.90
18450;DHT22;9354;50.194;7.690;2022-12-11T02:34:33;-0.80;99.90
18450;DHT22;9354;50.194;7.690;2022-12-11T02:37:06;-0.80;99.90
18450;DHT22;9354;50.194;7.690;2022-12-11T02:39:37;-0.80;99.90
18450;DHT22;9354;50.194;7.690;2022-12-11T02:42:05;-0.80;99.90
18450;DHT22;9354;50.194;7.690;2022-12-11T02:44:37;-0.70;99.90
18450;DHT22;9354;50.194;7.690;2022-12-11T02:47:07;-0.70;99.90
18450;DHT22;9354;50.194;7.690;2022-12-11T02:49:37;-0.70;99.90
18450;DHT22;9354;50.194;7.690;2022-12-11T02:52:06;-0.70;99.90
18450;DHT22;9354;50.194;7.690;2022-12-11T02:54:39;-0.60;99.90
18450;DHT22;9354;50.194;7.690;2022-12-11T02:57:10;-0.70;99.90
18450;DHT22;9354;50.194;7.690;2022-12-11T02:59:43;-0.70;99.90
18450;DHT22;9354;50.194;7.690;2022-12-11T03:02:12;-0.80;99.90
18450;DHT22;9354;50.194;7.690;2022-12-11T03:04:40;-0.80;99.90
18450;DHT22;9354;50.194;7.690;2022-12-11T03:07:12;-0.80;99.90
18450;DHT22;9354;50.194;7.690;2022-12-11T03:09:42;-0.80;99.90
18450;DHT22;9354;50.194;7.690;2022-12-11T03:12:14;-0.80;99.90
18450;DHT22;9354;50.194;7.690;2022-12-11T03:14:44;-0.80;99.90
18450;DHT22;9354;50.194;7.690;2022-12-11T03:17:15;-0.70;99.90
18450;DHT22;9354;50.194;7.690;2022-12-11T03:19:49;-0.70;99.90
18450;DHT22;9354;50.194;7.690;2022-12-11T03:22:21;-0.70;99.90
18450;DHT22;9354;50.194;7.690;2022-12-11T03:24:57;-0.70;99.90
18450;DHT22;9354;50.194;7.690;2022-12-11T03:27:29;-0.70;99.90
18450;DHT22;9354;50.194;7.690;2022-12-11T03:30:03;-0.70;99.90
18450;DHT22;9354;50.194;7.690;2022-12-11T03:32:36;-0.70;99.90
18450;DHT22;9354;50.194;7.690;2022-12-11T03:35:10;-0.70;99.90
18450;DHT22;9354;50.194;7.690;2022-12-11T03:37:39;-0.70;99.90
18450;DHT22;9354;50.194;7.690;2022-12-11T03:40:12;-0.80;99.90
18450;DHT22;9354;50.194;7.690;2022-12-11T03:42:42;-0.80;99.90
18450;DHT22;9354;50.194;7.690;2022-12-11T03:45:13;-0.80;99.90
18450;DHT22;9354;50.194;7.690;2022-12-11T03:47:43;-0.70;99.90
18450;DHT22;9354;50.194;7.690;2022-12-11T03:50:12;-0.80;99.90
18450;DHT22;9354;50.194;7.690;2022-12-11T03:52:43;-0.80;99.90
18450;DHT22;9354;50.194;7.690;2022-12-11T03:55:15;-0.80;99.90
18450;DHT22;9354;50.194;7.690;2022-12-11T03:57:43;-0.80;99.90
18450;DHT22;9354;50.194;7.690;2022-12-11T04:00:15;-0.80;99.90
18450;DHT22;9354;50.194;7.690;2022-12-11T04:02:43;-0.70;99.90
18450;DHT22;9354;50.194;7.690;2022-12-11T04:05:30;-0.70;99.90
18450;DHT22;9354;50.194;7.690;2022-12-11T04:07:58;-0.80;99.90
18450;DHT22;9354;50.194;7.690;2022-12-11T04:10:25;-0.90;99.90
18450;DHT22;9354;50.194;7.690;2022-12-11T04:12:53;-0.90;99.90
18450;DHT22;9354;50.194;7.690;2022-12-11T04:15:22;-0.90;99.90
18450;DHT22;9354;50.194;7.690;2022-12-11T04:17:48;-0.90;99.90
18450;DHT22;9354;50.194;7.690;2022-12-11T04:20:33;-0.90;99.90
18450;DHT22;9354;50.194;7.690;2022-12-11T04:23:18;-0.90;99.90
18450;DHT22;9354;50.194;7.690;2022-12-11T04:26:04;-0.80;99.90
18450;DHT22;9354;50.194;7.690;2022-12-11T04:28:32;-0.80;99.90
18450;DHT22;9354;50.194;7.690;2022-12-11T04:31:01;-0.80;99.90
18450;DHT22;9354;50.194;7.690;2022-12-11T04:33:28;-0.80;99.90
18450;DHT22;9354;50.194;7.690;2022-12-11T04:35:57;-0.80;99.90
18450;DHT22;9354;50.194;7.690;2022-12-11T04:38:25;-0.80;99.90
18450;DHT22;9354;50.194;7.690;2022-12-11T04:40:57;-0.70;99.90
18450;DHT22;9354;50.194;7.690;2022-12-11T04:43:24;-0.70;99.90
18450;DHT22;9354;50.194;7.690;2022-12-11T04:46:01;-0.70;99.90
18450;DHT22;9354;50.194;7.690;2022-12-11T04:48:28;-0.80;99.90
18450;DHT22;9354;50.194;7.690;2022-12-11T04:50:56;-0.80;99.90
18450;DHT22;9354;50.194;7.690;2022-12-11T04:53:24;-0.80;99.90
18450;DHT22;9354;50.194;7.690;2022-12-11T04:55:51;-0.80;99.90
18450;DHT22;9354;50.194;7.690;2022-12-11T04:58:19;-0.80;99.90
18450;DHT22;9354;50.194;7.690;2022-12-11T05:00:46;-0.80;99.90
18450;DHT22;9354;50.194;7.690;2022-12-11T05:03:15;-0.80;99.90
18450;DHT22;9354;50.194;7.690;2022-12-11T05:05:47;-0.80;99.90
18450;DHT22;9354;50.194;7.690;2022-12-11T05:08:15;-0.80;99.90
18450;DHT22;9354;50.194;7.690;2022-12-11T05:10:43;-0.80;99.90
18450;DHT22;9354;50.194;7.690;2022-12-11T05:13:10;-0.80;99.90
18450;DHT22;9354;50.194;7.690;2022-12-11T05:15:38;-0.80;99.90
18450;DHT22;9354;50.194;7.690;2022-12-11T05:18:06;-0.80;99.90
18450;DHT22;9354;50.194;7.690;2022-12-11T05:20:35;-0.80;99.90
18450;DHT22;9354;50.194;7.690;2022-12-11T05:23:02;-0.80;99.90
18450;DHT22;9354;50.194;7.690;2022-12-11T05:25:30;-0.70;99.90
18450;DHT22;9354;50.194;7.690;2022-12-11T05:27:57;-0.70;99.90
18450;DHT22;9354;50.194;7.690;2022-12-11T05:30:25;-0.70;99.90
18450;DHT22;9354;50.194;7.690;2022-12-11T05:32:52;-0.70;99.90
18450;DHT22;9354;50.194;7.690;2022-12-11T05:35:20;-0.70;99.90
18450;DHT22;9354;50.194;7.690;2022-12-11T05:37:48;-0.70;99.90
18450;DHT22;9354;50.194;7.690;2022-12-11T05:40:16;-0.60;99.90
18450;DHT22;9354;50.194;7.690;2022-12-11T05:42:43;-0.60;99.90
18450;DHT22;9354;50.194;7.690;2022-12-11T05:45:10;-0.50;99.90
18450;DHT22;9354;50.194;7.690;2022-12-11T05:47:38;-0.50;99.90
18450;DHT22;9354;50.194;7.690;2022-12-11T05:50:06;-0.50;99.90
18450;DHT22;9354;50.194;7.690;2022-12-11T05:52:34;-0.50;99.90
18450;DHT22;9354;50.194;7.690;2022-12-11T05:55:03;-0.50;99.90
18450;DHT22;9354;50.194;7.690;2022-12-11T05:57:30;-0.50;99.90
18450;DHT22;9354;50.194;7.690;2022-12-11T05:59:57;-0.50;99.90
18450;DHT22;9354;50.194;7.690;2022-12-11T06:02:25;-0.50;99.90
18450;DHT22;9354;50.194;7.690;2022-12-11T06:04:53;-0.50;99.90
18450;DHT22;9354;50.194;7.690;2022-12-11T06:07:20;-0.50;99.90
18450;DHT22;9354;50.194;7.690;2022-12-11T06:09:47;-0.50;99.90
18450;DHT22;9354;50.194;7.690;2022-12-11T06:12:16;-0.50;99.90
18450;DHT22;9354;50.194;7.690;2022-12-11T06:14:44;-0.40;99.90
18450;DHT22;9354;50.194;7.690;2022-12-11T06:17:11;-0.40;99.90
18450;DHT22;9354;50.194;7.690;2022-12-11T06:19:38;-0.40;99.90
18450;DHT22;9354;50.194;7.690;2022-12-11T06:22:06;-0.40;99.90
18450;DHT22;9354;50.194;7.690;2022-12-11T06:24:33;-0.50;99.90
18450;DHT22;9354;50.194;7.690;2022-12-11T06:27:01;-0.50;99.90
18450;DHT22;9354;50.194;7.690;2022-12-11T06:29:29;-0.50;99.90
18450;DHT22;9354;50.194;7.690;2022-12-11T06:31:57;-0.50;99.90
18450;DHT22;9354;50.194;7.690;2022-12-11T06:34:24;-0.50;99.90
18450;DHT22;9354;50.194;7.690;2022-12-11T06:36:52;-0.50;99.90
18450;DHT22;9354;50.194;7.690;2022-12-11T06:39:19;-0.50;99.90
18450;DHT22;9354;50.194;7.690;2022-12-11T06:41:47;-0.50;99.90
18450;DHT22;9354;50.194;7.690;2022-12-11T06:44:14;-0.50;99.90
18450;DHT22;9354;50.194;7.690;2022-12-11T06:46:43;-0.50;99.90
18450;DHT22;9354;50.194;7.690;2022-12-11T06:49:10;-0.50;99.90
18450;DHT22;9354;50.194;7.690;2022-12-11T06:51:38;-0.50;99.90
18450;DHT22;9354;50.194;7.690;2022-12-11T06:54:06;-0.50;99.90
18450;DHT22;9354;50.194;7.690;2022-12-11T06:56:33;-0.50;99.90
18450;DHT22;9354;50.194;7.690;2022-12-11T06:59:01;-0.40;99.90
18450;DHT22;9354;50.194;7.690;2022-12-11T07:01:28;-0.40;99.90
18450;DHT22;9354;50.194;7.690;2022-12-11T07:03:58;-0.40;99.90
18450;DHT22;9354;50.194;7.690;2022-12-11T07:06:27;-0.40;99.90
18450;DHT22;9354;50.194;7.690;2022-12-11T07:08:55;-0.30;99.90
18450;DHT22;9354;50.194;7.690;2022-12-11T07:11:22;-0.30;99.90
18450;DHT22;9354;50.194;7.690;2022-12-11T07:13:50;-0.30;99.90
18450;DHT22;9354;50.194;7.690;2022-12-11T07:16:17;-0.20;99.90
18450;DHT22;9354;50.194;7.690;2022-12-11T07:18:47;-0.30;99.90
18450;DHT22;9354;50.194;7.690;2022-12-11T07:21:17;-0.30;99.90
18450;DHT22;9354;50.194;7.690;2022-12-11T07:23:46;-0.30;99.90
18450;DHT22;9354;50.194;7.690;2022-12-11T07:26:15;-0.30;99.90
18450;DHT22;9354;50.194;7.690;2022-12-11T07:28:42;-0.30;99.90
18450;DHT22;9354;50.194;7.690;2022-12-11T07:31:11;-0.30;99.90
18450;DHT22;9354;50.194;7.690;2022-12-11T07:33:39;-0.40;99.90
18450;DHT22;9354;50.194;7.690;2022-12-11T07:36:09;-0.40;99.90
18450;DHT22;9354;50.194;7.690;2022-12-11T07:38:38;-0.30;99.90
18450;DHT22;9354;50.194;7.690;2022-12-11T07:41:07;-0.30;99.90
18450;DHT22;9354;50.194;7.690;2022-12-11T07:43:35;-0.30;99.90
18450;DHT22;9354;50.194;7.690;2022-12-11T07:46:04;-0.40;99.90
18450;DHT22;9354;50.194;7.690;2022-12-11T07:48:34;-0.40;99.90
18450;DHT22;9354;50.194;7.690;2022-12-11T07:51:08;-0.40;99.90
18450;DHT22;9354;50.194;7.690;2022-12-11T07:53:37;-0.40;99.90
18450;DHT22;9354;50.194;7.690;2022-12-11T07:56:05;-0.40;99.90
18450;DHT22;9354;50.194;7.690;2022-12-11T07:58:33;-0.40;99.90
18450;DHT22;9354;50.194;7.690;2022-12-11T08:01:01;-0.30;99.90
18450;DHT22;9354;50.194;7.690;2022-12-11T08:03:29;-0.30;99.90
18450;DHT22;9354;50.194;7.690;2022-12-11T08:05:56;-0.30;99.90
18450;DHT22;9354;50.194;7.690;2022-12-11T08:08:24;-0.40;99.90
18450;DHT22;9354;50.194;7.690;2022-12-11T08:10:52;-0.40;99.90
18450;DHT22;9354;50.194;7.690;2022-12-11T08:13:20;-0.50;99.90
18450;DHT22;9354;50.194;7.690;2022-12-11T08:15:47;-0.50;99.90
18450;DHT22;9354;50.194;7.690;2022-12-11T08:18:15;-0.50;99.90
18450;DHT22;9354;50.194;7.690;2022-12-11T08:20:42;-0.50;99.90
18450;DHT22;9354;50.194;7.690;2022-12-11T08:23:09;-0.50;99.90
18450;DHT22;9354;50.194;7.690;2022-12-11T08:25:37;-0.50;99.90
18450;DHT22;9354;50.194;7.690;2022-12-11T08:28:05;-0.50;99.90
18450;DHT22;9354;50.194;7.690;2022-12-11T08:30:34;-0.50;99.90
18450;DHT22;9354;50.194;7.690;2022-12-11T08:33:01;-0.50;99.90
18450;DHT22;9354;50.194;7.690;2022-12-11T08:35:28;-0.50;99.90
18450;DHT22;9354;50.194;7.690;2022-12-11T08:37:56;-0.50;99.90
18450;DHT22;9354;50.194;7.690;2022-12-11T08:40:23;-0.40;99.90
18450;DHT22;9354;50.194;7.690;2022-12-11T08:42:50;-0.40;99.90
18450;DHT22;9354;50.194;7.690;2022-12-11T08:45:19;-0.40;99.90
18450;DHT22;9354;50.194;7.690;2022-12-11T08:47:47;-0.40;99.90
18450;DHT22;9354;50.194;7.690;2022-12-11T08:50:14;-0.40;99.90
18450;DHT22;9354;50.194;7.690;2022-12-11T08:52:42;-0.40;99.90
18450;DHT22;9354;50.194;7.690;2022-12-11T08:55:09;-0.30;99.90
18450;DHT22;9354;50.194;7.690;2022-12-11T08:57:36;-0.30;99.90
18450;DHT22;9354;50.194;7.690;2022-12-11T09:00:06;-0.30;99.90
18450;DHT22;9354;50.194;7.690;2022-12-11T09:02:36;-0.20;99.90
18450;DHT22;9354;50.194;7.690;2022-12-11T09:05:04;-0.20;99.90
18450;DHT22;9354;50.194;7.690;2022-12-11T09:07:35;-0.10;99.90
18450;DHT22;9354;50.194;7.690;2022-12-11T09:10:03;-0.10;99.90
18450;DHT22;9354;50.194;7.690;2022-12-11T09:12:32;0.00;99.90
18450;DHT22;9354;50.194;7.690;2022-12-11T09:14:59;0.00;99.90
18450;DHT22;9354;50.194;7.690;2022-12-11T09:17:27;0.00;99.90
18450;DHT22;9354;50.194;7.690;2022-12-11T09:19:55;0.00;99.90
18450;DHT22;9354;50.194;7.690;2022-12-11T09:22:23;0.00;99.90
18450;DHT22;9354;50.194;7.690;2022-12-11T09:24:51;0.10;99.90
18450;DHT22;9354;50.194;7.690;2022-12-11T09:27:18;0.10;99.90
18450;DHT22;9354;50.194;7.690;2022-12-11T09:29:46;0.10;99.90
18450;DHT22;9354;50.194;7.690;2022-12-11T09:32:14;0.20;99.90
18450;DHT22;9354;50.194;7.690;2022-12-11T09:34:41;0.20;99.90
18450;DHT22;9354;50.194;7.690;2022-12-11T09:37:10;0.30;99.90
18450;DHT22;9354;50.194;7.690;2022-12-11T09:39:38;0.30;99.90
18450;DHT22;9354;50.194;7.690;2022-12-11T09:42:10;0.30;99.90
18450;DHT22;9354;50.194;7.690;2022-12-11T09:44:44;0.30;99.90
18450;DHT22;9354;50.194;7.690;2022-12-11T09:47:23;0.30;99.90
18450;DHT22;9354;50.194;7.690;2022-12-11T09:49:57;0.40;99.90
18450;DHT22;9354;50.194;7.690;2022-12-11T09:52:33;0.40;99.90
18450;DHT22;9354;50.194;7.690;2022-12-11T09:55:05;0.40;99.90
18450;DHT22;9354;50.194;7.690;2022-12-11T09:57:45;0.40;99.90
18450;DHT22;9354;50.194;7.690;2022-12-11T10:00:21;0.50;99.90
18450;DHT22;9354;50.194;7.690;2022-12-11T10:03:20;0.50;99.90
18450;DHT22;9354;50.194;7.690;2022-12-11T10:05:56;0.50;99.90
18450;DHT22;9354;50.194;7.690;2022-12-11T10:08:31;0.50;99.90
18450;DHT22;9354;50.194;7.690;2022-12-11T10:11:12;0.50;99.90
18450;DHT22;9354;50.194;7.690;2022-12-11T10:13:47;0.50;99.90
18450;DHT22;9354;50.194;7.690;2022-12-11T10:16:24;0.60;99.90
18450;DHT22;9354;50.194;7.690;2022-12-11T10:18:53;0.60;99.90
18450;DHT22;9354;50.194;7.690;2022-12-11T10:21:20;0.60;99.90
18450;DHT22;9354;50.194;7.690;2022-12-11T10:23:55;0.70;99.90
18450;DHT22;9354;50.194;7.690;2022-12-11T10:26:23;0.80;99.90
18450;DHT22;9354;50.194;7.690;2022-12-11T10:28:50;0.80;99.90
18450;DHT22;9354;50.194;7.690;2022-12-11T10:31:19;0.90;99.90
18450;DHT22;9354;50.194;7.690;2022-12-11T10:33:55;0.90;99.90
18450;DHT22;9354;50.194;7.690;2022-12-11T10:36:28;0.90;99.90
18450;DHT22;9354;50.194;7.690;2022-12-11T10:38:57;0.90;99.90
18450;DHT22;9354;50.194;7.690;2022-12-11T10:41:34;0.90;99.90
18450;DHT22;9354;50.194;7.690;2022-12-11T10:44:14;1.00;99.90
18450;DHT22;9354;50.194;7.690;2022-12-11T10:46:43;1.00;99.90
18450;DHT22;9354;50.194;7.690;2022-12-11T10:49:20;1.00;99.90
18450;DHT22;9354;50.194;7.690;2022-12-11T10:51:49;1.00;99.90
18450;DHT22;9354;50.194;7.690;2022-12-11T10:54:28;1.00;99.90
18450;DHT22;9354;50.194;7.690;2022-12-11T10:56:56;1.00;99.90
18450;DHT22;9354;50.194;7.690;2022-12-11T10:59:30;1.00;99.90
18450;DHT22;9354;50.194;7.690;2022-12-11T11:01:59;1.00;99.90
18450;DHT22;9354;50.194;7.690;2022-12-11T11:04:29;1.10;99.90
18450;DHT22;9354;50.194;7.690;2022-12-11T11:07:02;1.10;99.90
18450;DHT22;9354;50.194;7.690;2022-12-11T11:09:33;1.10;99.90
18450;DHT22;9354;50.194;7.690;2022-12-11T11:12:01;1.10;99.90
18450;DHT22;9354;50.194;7.690;2022-12-11T11:14:29;1.10;99.90
18450;DHT22;9354;50.194;7.690;2022-12-11T11:17:00;1.00;99.90
18450;DHT22;9354;50.194;7.690;2022-12-11T11:19:30;1.00;99.90
18450;DHT22;9354;50.194;7.690;2022-12-11T11:22:00;0.90;99.90
18450;DHT22;9354;50.194;7.690;2022-12-11T11:24:34;0.90;99.90
18450;DHT22;9354;50.194;7.690;2022-12-11T11:27:11;0.90;99.90
18450;DHT22;9354;50.194;7.690;2022-12-11T11:29:40;0.90;99.90
18450;DHT22;9354;50.194;7.690;2022-12-11T11:32:16;0.90;99.90
18450;DHT22;9354;50.194;7.690;2022-12-11T11:34:44;0.80;99.90
18450;DHT22;9354;50.194;7.690;2022-12-11T11:37:24;0.80;99.90
18450;DHT22;9354;50.194;7.690;2022-12-11T11:40:02;0.80;99.90
18450;DHT22;9354;50.194;7.690;2022-12-11T11:42:40;0.80;99.90
18450;DHT22;9354;50.194;7.690;2022-12-11T11:45:13;0.90;99.90
18450;DHT22;9354;50.194;7.690;2022-12-11T11:47:47;0.90;99.90
18450;DHT22;9354;50.194;7.690;2022-12-11T11:50:19;0.90;99.90
18450;DHT22;9354;50.194;7.690;2022-12-11T11:52:52;1.00;99.90
18450;DHT22;9354;50.194;7.690;2022-12-11T11:55:31;1.00;99.90
18450;DHT22;9354;50.194;7.690;2022-12-11T11:58:05;1.00;99.90
18450;DHT22;9354;50.194;7.690;2022-12-11T12:00:34;1.00;99.90
18450;DHT22;9354;50.194;7.690;2022-12-11T12:03:08;1.00;99.90
18450;DHT22;9354;50.194;7.690;2022-12-11T12:05:44;1.10;99.90
18450;DHT22;9354;50.194;7.690;2022-12-11T12:08:25;1.10;99.90
18450;DHT22;9354;50.194;7.690;2022-12-11T12:11:00;1.10;99.90
18450;DHT22;9354;50.194;7.690;2022-12-11T12:13:38;1.10;99.90
18450;DHT22;9354;50.194;7.690;2022-12-11T12:16:15;1.10;99.90
18450;DHT22;9354;50.194;7.690;2022-12-11T12:18:51;1.10;99.90
18450;DHT22;9354;50.194;7.690;2022-12-11T12:21:29;1.10;99.90
18450;DHT22;9354;50.194;7.690;2022-12-11T12:24:07;1.10;99.90
18450;DHT22;9354;50.194;7.690;2022-12-11T12:26:43;1.10;99.90
18450;DHT22;9354;50.194;7.690;2022-12-11T12:29:22;1.10;99.90
18450;DHT22;9354;50.194;7.690;2022-12-11T12:32:04;1.10;99.90
18450;DHT22;9354;50.194;7.690;2022-12-11T12:34:49;1.10;99.90
18450;DHT22;9354;50.194;7.690;2022-12-11T12:37:28;1.10;99.90
18450;DHT22;9354;50.194;7.690;2022-12-11T12:40:09;1.10;99.90
18450;DHT22;9354;50.194;7.690;2022-12-11T12:42:50;1.20;99.90
18450;DHT22;9354;50.194;7.690;2022-12-11T12:45:26;1.20;99.90
18450;DHT22;9354;50.194;7.690;2022-12-11T12:47:54;1.20;99.90
18450;DHT22;9354;50.194;7.690;2022-12-11T12:50:25;1.20;99.90
18450;DHT22;9354;50.194;7.690;2022-12-11T12:52:55;1.20;99.90
18450;DHT22;9354;50.194;7.690;2022-12-11T12:55:25;1.20;99.90
18450;DHT22;9354;50.194;7.690;2022-12-11T12:57:57;1.20;99.90
18450;DHT22;9354;50.194;7.690;2022-12-11T13:00:31;1.20;99.90
18450;DHT22;9354;50.194;7.690;2022-12-11T13:03:02;1.20;99.90
18450;DHT22;9354;50.194;7.690;2022-12-11T13:05:41;1.20;99.90
18450;DHT22;9354;50.194;7.690;2022-12-11T13:08:10;1.20;99.90
18450;DHT22;9354;50.194;7.690;2022-12-11T13:10:40;1.20;99.90
18450;DHT22;9354;50.194;7.690;2022-12-11T13:13:30;1.20;99.90
18450;DHT22;9354;50.194;7.690;2022-12-11T13:16:24;1.20;99.90
18450;DHT22;9354;50.194;7.690;2022-12-11T13:18:51;1.20;99.90
18450;DHT22;9354;50.194;7.690;2022-12-11T13:21:30;1.20;99.90
18450;DHT22;9354;50.194;7.690;2022-12-11T13:24:16;1.10;99.90
18450;DHT22;9354;50.194;7.690;2022-12-11T13:26:43;1.10;99.90
18450;DHT22;9354;50.194;7.690;2022-12-11T13:29:32;1.10;99.90
18450;DHT22;9354;50.194;7.690;2022-12-11T13:32:03;1.10;99.90
18450;DHT22;9354;50.194;7.690;2022-12-11T13:34:33;1.10;99.90
18450;DHT22;9354;50.194;7.690;2022-12-11T13:37:03;1.10;99.90
18450;DHT22;9354;50.194;7.690;2022-12-11T13:39:33;1.10;99.90
18450;DHT22;9354;50.194;7.690;2022-12-11T13:42:04;1.10;99.90
18450;DHT22;9354;50.194;7.690;2022-12-11T13:44:36;1.00;99.90
18450;DHT22;9354;50.194;7.690;2022-12-11T13:47:11;1.00;99.90
18450;DHT22;9354;50.194;7.690;2022-12-11T13:49:42;0.90;99.90
18450;DHT22;9354;50.194;7.690;2022-12-11T13:52:16;0.90;99.90
18450;DHT22;9354;50.194;7.690;2022-12-11T13:54:47;0.90;99.90
18450;DHT22;9354;50.194;7.690;2022-12-11T13:57:16;0.90;99.90
18450;DHT22;9354;50.194;7.690;2022-12-11T13:59:49;0.90;99.90
18450;DHT22;9354;50.194;7.690;2022-12-11T14:02:21;0.90;99.90
18450;DHT22;9354;50.194;7.690;2022-12-11T14:04:52;0.90;99.90
18450;DHT22;9354;50.194;7.690;2022-12-11T14:07:25;0.90;99.90
18450;DHT22;9354;50.194;7.690;2022-12-11T14:09:55;0.90;99.90
18450;DHT22;9354;50.194;7.690;2022-12-11T14:12:25;0.90;99.90
18450;DHT22;9354;50.194;7.690;2022-12-11T14:14:56;0.90;99.90
18450;DHT22;9354;50.194;7.690;2022-12-11T14:17:28;1.00;99.90
18450;DHT22;9354;50.194;7.690;2022-12-11T14:19:59;1.00;99.90
18450;DHT22;9354;50.194;7.690;2022-12-11T14:22:28;1.00;99.90
18450;DHT22;9354;50.194;7.690;2022-12-11T14:24:58;1.00;99.90
18450;DHT22;9354;50.194;7.690;2022-12-11T14:27:28;1.00;99.90
18450;DHT22;9354;50.194;7.690;2022-12-11T14:29:57;1.00;99.90
18450;DHT22;9354;50.194;7.690;2022-12-11T14:32:30;1.00;99.90
18450;DHT22;9354;50.194;7.690;2022-12-11T14:34:59;1.10;99.90
18450;DHT22;9354;50.194;7.690;2022-12-11T14:37:28;1.10;99.90
18450;DHT22;9354;50.194;7.690;2022-12-11T14:39:59;1.10;99.90
18450;DHT22;9354;50.194;7.690;2022-12-11T14:42:30;1.10;99.90
18450;DHT22;9354;50.194;7.690;2022-12-11T14:45:04;1.10;99.90
18450;DHT22;9354;50.194;7.690;2022-12-11T14:47:37;1.10;99.90
18450;DHT22;9354;50.194;7.690;2022-12-11T14:50:12;1.10;99.90
18450;DHT22;9354;50.194;7.690;2022-12-11T14:52:45;1.10;99.90
18450;DHT22;9354;50.194;7.690;2022-12-11T14:55:15;1.10;99.90
18450;DHT22;9354;50.194;7.690;2022-12-11T14:57:46;1.10;99.90
18450;DHT22;9354;50.194;7.690;2022-12-11T15:00:25;1.10;99.90
18450;DHT22;9354;50.194;7.690;2022-12-11T15:02:58;1.10;99.90
18450;DHT22;9354;50.194;7.690;2022-12-11T15:05:26;1.10;99.90
18450;DHT22;9354;50.194;7.690;2022-12-11T15:07:56;1.10;99.90
18450;DHT22;9354;50.194;7.690;2022-12-11T15:10:33;1.10;99.90
18450;DHT22;9354;50.194;7.690;2022-12-11T15:13:05;1.10;99.90
18450;DHT22;9354;50.194;7.690;2022-12-11T15:15:43;1.00;99.90
18450;DHT22;9354;50.194;7.690;2022-12-11T15:18:18;1.00;99.90
18450;DHT22;9354;50.194;7.690;2022-12-11T15:20:49;1.00;99.90
18450;DHT22;9354;50.194;7.690;2022-12-11T15:23:17;1.00;99.90
18450;DHT22;9354;50.194;7.690;2022-12-11T15:25:49;1.00;99.90
18450;DHT22;9354;50.194;7.690;2022-12-11T15:28:35;1.00;99.90
18450;DHT22;9354;50.194;7.690;2022-12-11T15:31:19;1.00;99.90
18450;DHT22;9354;50.194;7.690;2022-12-11T15:33:48;1.00;99.90
18450;DHT22;9354;50.194;7.690;2022-12-11T15:36:23;0.90;99.90
18450;DHT22;9354;50.194;7.690;2022-12-11T15:38:51;0.90;99.90
18450;DHT22;9354;50.194;7.690;2022-12-11T15:41:19;0.90;99.90
18450;DHT22;9354;50.194;7.690;2022-12-11T15:43:49;1.00;99.90
18450;DHT22;9354;50.194;7.690;2022-12-11T15:46:18;1.00;99.90
18450;DHT22;9354;50.194;7.690;2022-12-11T15:48:47;1.00;99.90
18450;DHT22;9354;50.194;7.690;2022-12-11T15:51:15;1.00;99.90
18450;DHT22;9354;50.194;7.690;2022-12-11T15:53:43;1.00;99.90
18450;DHT22;9354;50.194;7.690;2022-12-11T15:56:12;1.10;99.90
18450;DHT22;9354;50.194;7.690;2022-12-11T15:58:40;1.10;99.90
18450;DHT22;9354;50.194;7.690;2022-12-11T16:01:08;1.10;99.90
18450;DHT22;9354;50.194;7.690;2022-12-11T16:03:37;1.20;99.90
18450;DHT22;9354;50.194;7.690;2022-12-11T16:06:05;1.20;99.90
18450;DHT22;9354;50.194;7.690;2022-12-11T16:08:32;1.20;99.90
18450;DHT22;9354;50.194;7.690;2022-12-11T16:11:00;1.20;99.90
18450;DHT22;9354;50.194;7.690;2022-12-11T16:13:27;1.20;99.90
18450;DHT22;9354;50.194;7.690;2022-12-11T16:15:54;1.20;99.90
18450;DHT22;9354;50.194;7.690;2022-12-11T16:18:23;1.20;99.90